A- A+ FrançaisEnglishEspañol中国

最近的 SKGP GuapiLFPX Chavenay-VillepreuxLFNJ Aspres-Sur-Buech EHTW Enschede TwentheLFCC Cahors-LalbenqueLFBT Tarbes-Lourdes-Pyrénées

飞行员的航空天气,使用METAR(气象机场报告)进行的飞行准备和TAF(终端机场预报:针对以下情况的短期天气预报)航空)。 以及其他资源,例如VAC(目视进近图)和NOTAM(通知飞行员)以进行预试飞行.

METAR, TAF, VAC, NOTAM Le-Puy-Loudes机场 (法国) / OACI LFHP/ IATA LPY

它位于附近 Le Puy en Velay, Pralhac 在 0.6 km, Loudes 在 1.1 km, Civeyrac 在 2.2 km, Grazac 在 3 km, Lanthenas 在 3.1 km, Sanssac-l'Église 在 3.4 km, Borne 在 3.5 km, Saint-Jean-de-Nay 在 5.3 km,

机场的高度为 Le-Puy-Loudes机场的

832 m = 2730 ft

附近的机场Le-Puy-Loudes机场的

跑道 Le-Puy-Loudes机场的

目前的天气 Le-Puy-Loudes机场的 - LFHP

faible pluie
21°C

Vent 22 km/h

可提供5天天气预报 Pralhac 在 0.6 km, Loudes 在 1.1 km, Civeyrac 在 2.2 km, Grazac 在 3 km, Lanthenas 在 3.1 km, Sanssac-l'Église 在 3.4 km, Borne 在 3.5 km, Saint-Jean-de-Nay 在 5.3 km,

METAR Le-Puy-Loudes机场的 - LFHP

LFHP 011500Z AUTO 31012KT 9999 TS ///CB 21/14 Q1016

Le-Puy-Loudes机场METAR解码 (法国)

LFHP机场发行的METAR日期2020年07月01日至15:00 GMT. 这是一个自动生成的METAR, 警告:此METAR已过期, 已于 1 天 23 小时 51 分钟.

可见度为大于 10 km = 大于6.2 sm.

温度为21°C = 70 °F 露点为14°C = 57 °F 。 这相当于64%的相对湿度。.

QNH是1016 hPa = 30 inHg

的风12 kt = 22 km/h, 风向为310°.

天空晴朗

///積雨雲

TAF Le-Puy-Loudes机场的 - LFHP

没有TAF

Le-Puy-Loudes视觉方法图 - LFHP

所提供的视觉方法图(VAC视觉方法图)不保证其及时性。 在将其用于飞行准备或在飞行期间使用之前,飞行员是唯一负责验证其有效性的人员。.

Le-Puy-Loudes机场的NOTAM

提供的NOTAM不能保证其时事性。 在将其用于飞行准备或在飞行期间使用之前,飞行员是唯一负责验证其有效性的人员。

没有通知

数据源